sensor_id;sensor_type;location;lat;lon;timestamp;P1;durP1;ratioP1;P2;durP2;ratioP2
27642;SDS011;15053;48.618;10.024;2023-03-01T00:01:00;28.33;;;14.82;;
27642;SDS011;15053;48.618;10.024;2023-03-01T00:03:29;33.78;;;15.95;;
27642;SDS011;15053;48.618;10.024;2023-03-01T00:05:55;35.63;;;16.85;;
27642;SDS011;15053;48.618;10.024;2023-03-01T00:08:21;30.08;;;15.75;;
27642;SDS011;15053;48.618;10.024;2023-03-01T00:10:48;27.42;;;13.85;;
27642;SDS011;15053;48.618;10.024;2023-03-01T00:13:14;27.35;;;14.88;;
27642;SDS011;15053;48.618;10.024;2023-03-01T00:15:41;30.73;;;14.65;;
27642;SDS011;15053;48.618;10.024;2023-03-01T00:18:08;32.35;;;14.90;;
27642;SDS011;15053;48.618;10.024;2023-03-01T00:20:34;35.53;;;14.93;;
27642;SDS011;15053;48.618;10.024;2023-03-01T00:23:01;30.95;;;15.88;;
27642;SDS011;15053;48.618;10.024;2023-03-01T00:25:27;25.63;;;14.85;;
27642;SDS011;15053;48.618;10.024;2023-03-01T00:27:53;35.80;;;16.77;;
27642;SDS011;15053;48.618;10.024;2023-03-01T00:30:20;29.45;;;14.85;;
27642;SDS011;15053;48.618;10.024;2023-03-01T00:32:46;31.20;;;15.85;;
27642;SDS011;15053;48.618;10.024;2023-03-01T00:35:13;30.77;;;15.05;;
27642;SDS011;15053;48.618;10.024;2023-03-01T00:37:39;32.58;;;14.98;;
27642;SDS011;15053;48.618;10.024;2023-03-01T00:40:07;30.10;;;15.52;;
27642;SDS011;15053;48.618;10.024;2023-03-01T00:42:35;32.88;;;16.27;;
27642;SDS011;15053;48.618;10.024;2023-03-01T00:45:01;30.42;;;15.65;;
27642;SDS011;15053;48.618;10.024;2023-03-01T00:47:28;32.78;;;15.30;;
27642;SDS011;15053;48.618;10.024;2023-03-01T00:49:55;28.60;;;15.48;;
27642;SDS011;15053;48.618;10.024;2023-03-01T00:52:22;30.33;;;15.13;;
27642;SDS011;15053;48.618;10.024;2023-03-01T00:54:48;31.67;;;16.00;;
27642;SDS011;15053;48.618;10.024;2023-03-01T00:57:17;32.60;;;15.75;;
27642;SDS011;15053;48.618;10.024;2023-03-01T00:59:44;35.25;;;16.80;;
27642;SDS011;15053;48.618;10.024;2023-03-01T01:02:10;35.30;;;16.35;;
27642;SDS011;15053;48.618;10.024;2023-03-01T01:04:37;31.23;;;15.52;;
27642;SDS011;15053;48.618;10.024;2023-03-01T01:07:03;33.13;;;16.25;;
27642;SDS011;15053;48.618;10.024;2023-03-01T01:09:30;29.85;;;14.48;;
27642;SDS011;15053;48.618;10.024;2023-03-01T01:11:56;31.27;;;15.48;;
27642;SDS011;15053;48.618;10.024;2023-03-01T01:14:23;34.40;;;16.27;;
27642;SDS011;15053;48.618;10.024;2023-03-01T01:16:49;28.65;;;15.18;;
27642;SDS011;15053;48.618;10.024;2023-03-01T01:19:16;31.73;;;16.50;;
27642;SDS011;15053;48.618;10.024;2023-03-01T01:21:42;33.20;;;16.20;;
27642;SDS011;15053;48.618;10.024;2023-03-01T01:24:11;33.30;;;16.38;;
27642;SDS011;15053;48.618;10.024;2023-03-01T01:26:38;32.28;;;16.33;;
27642;SDS011;15053;48.618;10.024;2023-03-01T01:29:04;32.25;;;16.55;;
27642;SDS011;15053;48.618;10.024;2023-03-01T01:31:31;33.35;;;15.80;;
27642;SDS011;15053;48.618;10.024;2023-03-01T01:34:00;36.13;;;17.23;;
27642;SDS011;15053;48.618;10.024;2023-03-01T01:36:28;33.20;;;16.10;;
27642;SDS011;15053;48.618;10.024;2023-03-01T01:38:55;32.53;;;16.08;;
27642;SDS011;15053;48.618;10.024;2023-03-01T01:41:23;34.17;;;17.20;;
27642;SDS011;15053;48.618;10.024;2023-03-01T01:44:14;39.40;;;16.85;;
27642;SDS011;15053;48.618;10.024;2023-03-01T01:49:51;32.83;;;16.65;;
27642;SDS011;15053;48.618;10.024;2023-03-01T01:52:34;37.83;;;17.00;;
27642;SDS011;15053;48.618;10.024;2023-03-01T01:57:37;34.60;;;17.67;;
27642;SDS011;15053;48.618;10.024;2023-03-01T02:00:11;35.65;;;16.38;;
27642;SDS011;15053;48.618;10.024;2023-03-01T02:02:52;33.80;;;17.30;;
27642;SDS011;15053;48.618;10.024;2023-03-01T02:05:40;37.85;;;17.33;;
27642;SDS011;15053;48.618;10.024;2023-03-01T02:08:21;36.30;;;16.80;;
27642;SDS011;15053;48.618;10.024;2023-03-01T02:10:51;38.55;;;16.50;;
27642;SDS011;15053;48.618;10.024;2023-03-01T02:13:18;32.53;;;16.52;;
27642;SDS011;15053;48.618;10.024;2023-03-01T02:15:44;34.10;;;17.48;;
27642;SDS011;15053;48.618;10.024;2023-03-01T02:18:13;32.70;;;16.50;;
27642;SDS011;15053;48.618;10.024;2023-03-01T02:23:38;37.25;;;17.45;;
27642;SDS011;15053;48.618;10.024;2023-03-01T02:26:10;32.00;;;16.77;;
27642;SDS011;15053;48.618;10.024;2023-03-01T02:28:44;34.70;;;16.90;;
27642;SDS011;15053;48.618;10.024;2023-03-01T02:31:13;31.88;;;17.15;;
27642;SDS011;15053;48.618;10.024;2023-03-01T02:34:01;35.95;;;17.02;;
27642;SDS011;15053;48.618;10.024;2023-03-01T02:36:38;42.65;;;17.67;;
27642;SDS011;15053;48.618;10.024;2023-03-01T02:39:08;37.22;;;18.38;;
27642;SDS011;15053;48.618;10.024;2023-03-01T02:41:44;35.25;;;17.63;;
27642;SDS011;15053;48.618;10.024;2023-03-01T02:44:15;33.85;;;16.33;;
27642;SDS011;15053;48.618;10.024;2023-03-01T02:46:49;32.15;;;17.35;;
27642;SDS011;15053;48.618;10.024;2023-03-01T02:49:23;35.38;;;17.80;;
27642;SDS011;15053;48.618;10.024;2023-03-01T02:57:27;34.75;;;17.77;;
27642;SDS011;15053;48.618;10.024;2023-03-01T02:59:55;32.97;;;16.52;;
27642;SDS011;15053;48.618;10.024;2023-03-01T03:02:24;36.70;;;17.60;;
27642;SDS011;15053;48.618;10.024;2023-03-01T03:05:11;33.03;;;17.33;;
27642;SDS011;15053;48.618;10.024;2023-03-01T03:07:41;39.22;;;18.35;;
27642;SDS011;15053;48.618;10.024;2023-03-01T03:10:12;39.75;;;17.27;;
27642;SDS011;15053;48.618;10.024;2023-03-01T03:12:52;35.28;;;17.77;;
27642;SDS011;15053;48.618;10.024;2023-03-01T03:15:21;35.85;;;18.50;;
27642;SDS011;15053;48.618;10.024;2023-03-01T03:17:48;35.40;;;18.15;;
27642;SDS011;15053;48.618;10.024;2023-03-01T03:20:17;33.38;;;17.77;;
27642;SDS011;15053;48.618;10.024;2023-03-01T03:22:49;37.17;;;18.10;;
27642;SDS011;15053;48.618;10.024;2023-03-01T03:25:17;31.80;;;16.48;;
27642;SDS011;15053;48.618;10.024;2023-03-01T03:27:46;35.53;;;17.45;;
27642;SDS011;15053;48.618;10.024;2023-03-01T03:30:15;36.95;;;17.05;;
27642;SDS011;15053;48.618;10.024;2023-03-01T03:32:44;34.60;;;17.25;;
27642;SDS011;15053;48.618;10.024;2023-03-01T03:35:40;34.05;;;17.05;;
27642;SDS011;15053;48.618;10.024;2023-03-01T03:38:08;36.45;;;18.05;;
27642;SDS011;15053;48.618;10.024;2023-03-01T03:40:43;37.55;;;17.67;;
27642;SDS011;15053;48.618;10.024;2023-03-01T03:43:13;37.60;;;18.27;;
27642;SDS011;15053;48.618;10.024;2023-03-01T03:45:45;38.25;;;18.02;;
27642;SDS011;15053;48.618;10.024;2023-03-01T03:48:13;37.92;;;18.48;;
27642;SDS011;15053;48.618;10.024;2023-03-01T03:50:40;36.70;;;18.35;;
27642;SDS011;15053;48.618;10.024;2023-03-01T03:53:11;37.42;;;16.98;;
27642;SDS011;15053;48.618;10.024;2023-03-01T03:55:38;38.13;;;17.77;;
27642;SDS011;15053;48.618;10.024;2023-03-01T03:58:06;36.47;;;18.77;;
27642;SDS011;15053;48.618;10.024;2023-03-01T04:00:35;38.42;;;18.42;;
27642;SDS011;15053;48.618;10.024;2023-03-01T04:03:02;34.22;;;17.58;;
27642;SDS011;15053;48.618;10.024;2023-03-01T04:05:29;36.55;;;18.55;;
27642;SDS011;15053;48.618;10.024;2023-03-01T04:07:56;35.80;;;17.17;;
27642;SDS011;15053;48.618;10.024;2023-03-01T04:10:30;35.97;;;18.63;;
27642;SDS011;15053;48.618;10.024;2023-03-01T04:12:58;33.78;;;18.20;;
27642;SDS011;15053;48.618;10.024;2023-03-01T04:15:25;36.40;;;17.42;;
27642;SDS011;15053;48.618;10.024;2023-03-01T04:17:53;32.88;;;17.88;;
27642;SDS011;15053;48.618;10.024;2023-03-01T04:20:22;36.85;;;16.98;;
27642;SDS011;15053;48.618;10.024;2023-03-01T04:23:00;36.33;;;17.50;;
27642;SDS011;15053;48.618;10.024;2023-03-01T04:25:40;39.28;;;18.45;;
27642;SDS011;15053;48.618;10.024;2023-03-01T04:28:22;35.25;;;17.42;;
27642;SDS011;15053;48.618;10.024;2023-03-01T04:30:53;34.30;;;18.05;;
27642;SDS011;15053;48.618;10.024;2023-03-01T04:33:21;38.75;;;18.25;;
27642;SDS011;15053;48.618;10.024;2023-03-01T04:35:48;37.95;;;19.00;;
27642;SDS011;15053;48.618;10.024;2023-03-01T04:38:19;37.88;;;18.60;;
27642;SDS011;15053;48.618;10.024;2023-03-01T04:40:47;36.60;;;18.55;;
27642;SDS011;15053;48.618;10.024;2023-03-01T04:43:14;34.75;;;18.15;;
27642;SDS011;15053;48.618;10.024;2023-03-01T04:45:40;37.90;;;18.45;;
27642;SDS011;15053;48.618;10.024;2023-03-01T04:48:07;34.70;;;17.55;;
27642;SDS011;15053;48.618;10.024;2023-03-01T04:50:34;43.10;;;17.95;;
27642;SDS011;15053;48.618;10.024;2023-03-01T04:53:01;37.78;;;18.75;;
27642;SDS011;15053;48.618;10.024;2023-03-01T04:55:28;36.88;;;18.48;;
27642;SDS011;15053;48.618;10.024;2023-03-01T04:57:54;42.10;;;17.77;;
27642;SDS011;15053;48.618;10.024;2023-03-01T05:00:21;36.03;;;18.20;;
27642;SDS011;15053;48.618;10.024;2023-03-01T05:02:49;33.92;;;17.35;;
27642;SDS011;15053;48.618;10.024;2023-03-01T05:05:21;39.72;;;17.52;;
27642;SDS011;15053;48.618;10.024;2023-03-01T05:07:55;35.65;;;19.27;;
27642;SDS011;15053;48.618;10.024;2023-03-01T05:10:24;37.00;;;17.75;;
27642;SDS011;15053;48.618;10.024;2023-03-01T05:12:51;39.65;;;18.35;;
27642;SDS011;15053;48.618;10.024;2023-03-01T05:15:21;39.90;;;18.10;;
27642;SDS011;15053;48.618;10.024;2023-03-01T05:17:54;36.33;;;18.33;;
27642;SDS011;15053;48.618;10.024;2023-03-01T05:20:28;37.78;;;18.60;;
27642;SDS011;15053;48.618;10.024;2023-03-01T05:22:57;41.17;;;18.17;;
27642;SDS011;15053;48.618;10.024;2023-03-01T05:25:26;38.15;;;19.73;;
27642;SDS011;15053;48.618;10.024;2023-03-01T05:27:53;38.50;;;19.10;;
27642;SDS011;15053;48.618;10.024;2023-03-01T05:30:19;36.03;;;18.67;;
27642;SDS011;15053;48.618;10.024;2023-03-01T05:32:47;38.22;;;18.83;;
27642;SDS011;15053;48.618;10.024;2023-03-01T05:35:16;33.53;;;18.75;;
27642;SDS011;15053;48.618;10.024;2023-03-01T05:37:45;38.33;;;19.13;;
27642;SDS011;15053;48.618;10.024;2023-03-01T05:40:20;38.00;;;19.27;;
27642;SDS011;15053;48.618;10.024;2023-03-01T05:42:52;40.33;;;19.15;;
27642;SDS011;15053;48.618;10.024;2023-03-01T05:45:20;56.13;;;20.77;;
27642;SDS011;15053;48.618;10.024;2023-03-01T05:47:48;38.75;;;18.85;;
27642;SDS011;15053;48.618;10.024;2023-03-01T05:50:17;38.45;;;19.05;;
27642;SDS011;15053;48.618;10.024;2023-03-01T05:52:49;37.63;;;18.88;;
27642;SDS011;15053;48.618;10.024;2023-03-01T05:55:18;40.15;;;20.38;;
27642;SDS011;15053;48.618;10.024;2023-03-01T05:57:46;39.50;;;19.15;;
27642;SDS011;15053;48.618;10.024;2023-03-01T06:00:14;41.92;;;20.17;;
27642;SDS011;15053;48.618;10.024;2023-03-01T06:02:42;42.05;;;19.95;;
27642;SDS011;15053;48.618;10.024;2023-03-01T06:05:10;44.45;;;21.35;;
27642;SDS011;15053;48.618;10.024;2023-03-01T06:07:40;46.92;;;23.10;;
27642;SDS011;15053;48.618;10.024;2023-03-01T06:10:07;49.83;;;21.27;;
27642;SDS011;15053;48.618;10.024;2023-03-01T06:12:36;43.45;;;21.50;;
27642;SDS011;15053;48.618;10.024;2023-03-01T06:15:05;41.70;;;20.48;;
27642;SDS011;15053;48.618;10.024;2023-03-01T06:17:34;39.53;;;19.38;;
27642;SDS011;15053;48.618;10.024;2023-03-01T06:20:07;39.42;;;20.13;;
27642;SDS011;15053;48.618;10.024;2023-03-01T06:22:42;61.38;;;26.30;;
27642;SDS011;15053;48.618;10.024;2023-03-01T06:25:10;67.97;;;32.13;;
27642;SDS011;15053;48.618;10.024;2023-03-01T06:27:38;71.50;;;32.63;;
27642;SDS011;15053;48.618;10.024;2023-03-01T06:30:06;63.00;;;31.95;;
27642;SDS011;15053;48.618;10.024;2023-03-01T06:32:34;51.65;;;25.23;;
27642;SDS011;15053;48.618;10.024;2023-03-01T06:35:00;41.00;;;21.70;;
27642;SDS011;15053;48.618;10.024;2023-03-01T06:37:27;40.30;;;20.20;;
27642;SDS011;15053;48.618;10.024;2023-03-01T06:39:53;43.67;;;19.20;;
27642;SDS011;15053;48.618;10.024;2023-03-01T06:42:19;43.15;;;21.33;;
27642;SDS011;15053;48.618;10.024;2023-03-01T06:44:46;40.75;;;20.50;;
27642;SDS011;15053;48.618;10.024;2023-03-01T06:47:13;38.80;;;19.00;;
27642;SDS011;15053;48.618;10.024;2023-03-01T06:49:39;40.40;;;18.98;;
27642;SDS011;15053;48.618;10.024;2023-03-01T06:52:05;40.17;;;20.52;;
27642;SDS011;15053;48.618;10.024;2023-03-01T06:54:32;43.20;;;21.73;;
27642;SDS011;15053;48.618;10.024;2023-03-01T06:56:58;54.58;;;24.52;;
27642;SDS011;15053;48.618;10.024;2023-03-01T06:59:25;74.35;;;29.30;;
27642;SDS011;15053;48.618;10.024;2023-03-01T07:01:51;103.85;;;33.75;;
27642;SDS011;15053;48.618;10.024;2023-03-01T07:04:17;85.55;;;32.63;;
27642;SDS011;15053;48.618;10.024;2023-03-01T07:06:44;59.03;;;25.83;;
27642;SDS011;15053;48.618;10.024;2023-03-01T07:09:10;71.70;;;27.80;;
27642;SDS011;15053;48.618;10.024;2023-03-01T07:11:37;50.63;;;23.25;;
27642;SDS011;15053;48.618;10.024;2023-03-01T07:14:03;44.00;;;21.95;;
27642;SDS011;15053;48.618;10.024;2023-03-01T07:16:30;43.28;;;21.10;;
27642;SDS011;15053;48.618;10.024;2023-03-01T07:18:57;40.33;;;19.88;;
27642;SDS011;15053;48.618;10.024;2023-03-01T07:21:25;40.38;;;20.60;;
27642;SDS011;15053;48.618;10.024;2023-03-01T07:23:51;41.40;;;18.85;;
27642;SDS011;15053;48.618;10.024;2023-03-01T07:26:17;57.72;;;21.23;;
27642;SDS011;15053;48.618;10.024;2023-03-01T07:28:44;37.72;;;19.33;;
27642;SDS011;15053;48.618;10.024;2023-03-01T07:31:10;40.35;;;19.73;;
27642;SDS011;15053;48.618;10.024;2023-03-01T07:33:37;36.42;;;19.23;;
27642;SDS011;15053;48.618;10.024;2023-03-01T07:36:04;40.15;;;18.98;;
27642;SDS011;15053;48.618;10.024;2023-03-01T07:38:31;42.63;;;18.25;;
27642;SDS011;15053;48.618;10.024;2023-03-01T07:41:02;41.92;;;19.30;;
27642;SDS011;15053;48.618;10.024;2023-03-01T07:43:29;38.50;;;18.45;;
27642;SDS011;15053;48.618;10.024;2023-03-01T07:46:00;40.97;;;18.75;;
27642;SDS011;15053;48.618;10.024;2023-03-01T07:48:28;38.90;;;18.58;;
27642;SDS011;15053;48.618;10.024;2023-03-01T07:50:59;36.90;;;18.58;;
27642;SDS011;15053;48.618;10.024;2023-03-01T07:53:27;37.50;;;18.58;;
27642;SDS011;15053;48.618;10.024;2023-03-01T07:56:07;38.42;;;17.95;;
27642;SDS011;15053;48.618;10.024;2023-03-01T07:58:36;39.72;;;17.77;;
27642;SDS011;15053;48.618;10.024;2023-03-01T08:01:08;40.63;;;18.23;;
27642;SDS011;15053;48.618;10.024;2023-03-01T08:03:37;38.47;;;17.27;;
27642;SDS011;15053;48.618;10.024;2023-03-01T08:06:05;39.72;;;18.00;;
27642;SDS011;15053;48.618;10.024;2023-03-01T08:08:33;38.72;;;17.48;;
27642;SDS011;15053;48.618;10.024;2023-03-01T08:11:00;39.90;;;18.52;;
27642;SDS011;15053;48.618;10.024;2023-03-01T08:13:28;44.22;;;19.90;;
27642;SDS011;15053;48.618;10.024;2023-03-01T08:16:00;39.35;;;17.85;;
27642;SDS011;15053;48.618;10.024;2023-03-01T08:18:28;38.35;;;17.65;;
27642;SDS011;15053;48.618;10.024;2023-03-01T08:20:54;41.03;;;19.50;;
27642;SDS011;15053;48.618;10.024;2023-03-01T08:23:21;42.83;;;18.60;;
27642;SDS011;15053;48.618;10.024;2023-03-01T08:25:47;46.65;;;21.02;;
27642;SDS011;15053;48.618;10.024;2023-03-01T08:28:14;37.65;;;18.50;;
27642;SDS011;15053;48.618;10.024;2023-03-01T08:30:40;40.10;;;18.23;;
27642;SDS011;15053;48.618;10.024;2023-03-01T08:33:07;37.17;;;18.40;;
27642;SDS011;15053;48.618;10.024;2023-03-01T08:35:33;36.35;;;17.60;;
27642;SDS011;15053;48.618;10.024;2023-03-01T08:38:00;37.30;;;18.42;;
27642;SDS011;15053;48.618;10.024;2023-03-01T08:40:26;36.22;;;17.60;;
27642;SDS011;15053;48.618;10.024;2023-03-01T08:42:53;35.95;;;18.42;;
27642;SDS011;15053;48.618;10.024;2023-03-01T08:45:19;38.58;;;19.10;;
27642;SDS011;15053;48.618;10.024;2023-03-01T08:47:45;41.50;;;18.55;;
27642;SDS011;15053;48.618;10.024;2023-03-01T08:50:12;31.42;;;17.15;;
27642;SDS011;15053;48.618;10.024;2023-03-01T08:52:38;37.83;;;19.17;;
27642;SDS011;15053;48.618;10.024;2023-03-01T08:55:05;33.67;;;17.30;;
27642;SDS011;15053;48.618;10.024;2023-03-01T08:57:32;34.88;;;17.85;;
27642;SDS011;15053;48.618;10.024;2023-03-01T08:59:58;38.60;;;19.00;;
27642;SDS011;15053;48.618;10.024;2023-03-01T09:02:25;41.30;;;18.35;;
27642;SDS011;15053;48.618;10.024;2023-03-01T09:04:51;37.78;;;18.55;;
27642;SDS011;15053;48.618;10.024;2023-03-01T09:07:18;38.30;;;17.77;;
27642;SDS011;15053;48.618;10.024;2023-03-01T09:09:44;38.22;;;17.48;;
27642;SDS011;15053;48.618;10.024;2023-03-01T09:12:11;36.08;;;17.90;;
27642;SDS011;15053;48.618;10.024;2023-03-01T09:14:37;37.60;;;17.60;;
27642;SDS011;15053;48.618;10.024;2023-03-01T09:17:04;37.92;;;18.23;;
27642;SDS011;15053;48.618;10.024;2023-03-01T09:19:31;41.85;;;19.90;;
27642;SDS011;15053;48.618;10.024;2023-03-01T09:21:57;37.60;;;17.52;;
27642;SDS011;15053;48.618;10.024;2023-03-01T09:24:24;33.40;;;17.10;;
27642;SDS011;15053;48.618;10.024;2023-03-01T09:26:52;41.05;;;19.00;;
27642;SDS011;15053;48.618;10.024;2023-03-01T09:29:21;36.05;;;18.65;;
27642;SDS011;15053;48.618;10.024;2023-03-01T09:31:47;33.15;;;17.42;;
27642;SDS011;15053;48.618;10.024;2023-03-01T09:34:14;35.35;;;17.50;;
27642;SDS011;15053;48.618;10.024;2023-03-01T09:36:42;47.70;;;19.08;;
27642;SDS011;15053;48.618;10.024;2023-03-01T09:39:08;37.65;;;18.05;;
27642;SDS011;15053;48.618;10.024;2023-03-01T09:41:42;35.53;;;17.63;;
27642;SDS011;15053;48.618;10.024;2023-03-01T09:46:46;37.97;;;17.77;;
27642;SDS011;15053;48.618;10.024;2023-03-01T09:49:21;36.60;;;17.58;;
27642;SDS011;15053;48.618;10.024;2023-03-01T09:51:54;37.90;;;19.25;;
27642;SDS011;15053;48.618;10.024;2023-03-01T09:54:23;34.35;;;17.48;;
27642;SDS011;15053;48.618;10.024;2023-03-01T09:56:59;36.92;;;18.50;;
27642;SDS011;15053;48.618;10.024;2023-03-01T09:59:53;32.97;;;17.27;;
27642;SDS011;15053;48.618;10.024;2023-03-01T10:02:42;40.83;;;18.13;;
27642;SDS011;15053;48.618;10.024;2023-03-01T10:08:06;33.55;;;17.60;;
27642;SDS011;15053;48.618;10.024;2023-03-01T10:10:51;32.15;;;17.33;;
27642;SDS011;15053;48.618;10.024;2023-03-01T10:13:20;33.28;;;17.67;;
27642;SDS011;15053;48.618;10.024;2023-03-01T10:15:56;36.13;;;17.30;;
27642;SDS011;15053;48.618;10.024;2023-03-01T10:18:28;29.98;;;17.17;;
27642;SDS011;15053;48.618;10.024;2023-03-01T10:21:03;29.73;;;16.48;;
27642;SDS011;15053;48.618;10.024;2023-03-01T10:23:39;36.35;;;18.23;;
27642;SDS011;15053;48.618;10.024;2023-03-01T10:26:23;33.85;;;17.65;;
27642;SDS011;15053;48.618;10.024;2023-03-01T10:29:05;35.80;;;17.45;;
27642;SDS011;15053;48.618;10.024;2023-03-01T10:34:16;34.90;;;17.13;;
27642;SDS011;15053;48.618;10.024;2023-03-01T10:36:49;35.45;;;17.63;;
27642;SDS011;15053;48.618;10.024;2023-03-01T10:39:18;31.85;;;17.35;;
27642;SDS011;15053;48.618;10.024;2023-03-01T10:41:52;34.90;;;19.08;;
27642;SDS011;15053;48.618;10.024;2023-03-01T10:47:26;34.60;;;17.75;;
27642;SDS011;15053;48.618;10.024;2023-03-01T10:50:03;31.50;;;17.50;;
27642;SDS011;15053;48.618;10.024;2023-03-01T10:52:36;32.22;;;17.73;;
27642;SDS011;15053;48.618;10.024;2023-03-01T10:57:50;34.92;;;18.58;;
27642;SDS011;15053;48.618;10.024;2023-03-01T11:00:44;33.53;;;17.25;;
27642;SDS011;15053;48.618;10.024;2023-03-01T11:03:18;31.25;;;16.85;;
27642;SDS011;15053;48.618;10.024;2023-03-01T11:05:52;35.45;;;18.45;;
27642;SDS011;15053;48.618;10.024;2023-03-01T11:08:31;38.47;;;18.60;;
27642;SDS011;15053;48.618;10.024;2023-03-01T11:11:04;32.63;;;17.63;;
27642;SDS011;15053;48.618;10.024;2023-03-01T11:13:33;33.63;;;17.77;;
27642;SDS011;15053;48.618;10.024;2023-03-01T11:16:06;31.25;;;18.02;;
27642;SDS011;15053;48.618;10.024;2023-03-01T11:18:36;31.13;;;17.77;;
27642;SDS011;15053;48.618;10.024;2023-03-01T11:21:14;32.83;;;17.85;;
27642;SDS011;15053;48.618;10.024;2023-03-01T11:23:42;37.90;;;18.58;;
27642;SDS011;15053;48.618;10.024;2023-03-01T11:26:11;30.50;;;17.23;;
27642;SDS011;15053;48.618;10.024;2023-03-01T11:28:40;33.28;;;17.63;;
27642;SDS011;15053;48.618;10.024;2023-03-01T11:31:09;29.23;;;18.08;;
27642;SDS011;15053;48.618;10.024;2023-03-01T11:36:27;31.85;;;17.58;;
27642;SDS011;15053;48.618;10.024;2023-03-01T11:38:55;33.53;;;17.15;;
27642;SDS011;15053;48.618;10.024;2023-03-01T11:41:24;29.63;;;16.55;;
27642;SDS011;15053;48.618;10.024;2023-03-01T11:43:56;29.40;;;17.73;;
27642;SDS011;15053;48.618;10.024;2023-03-01T11:55:17;28.08;;;16.73;;
27642;SDS011;15053;48.618;10.024;2023-03-01T12:09:01;30.50;;;18.25;;
27642;SDS011;15053;48.618;10.024;2023-03-01T12:14:28;36.20;;;18.65;;
27642;SDS011;15053;48.618;10.024;2023-03-01T12:17:09;26.48;;;16.65;;
27642;SDS011;15053;48.618;10.024;2023-03-01T12:19:50;28.33;;;16.33;;
27642;SDS011;15053;48.618;10.024;2023-03-01T12:22:31;27.38;;;17.40;;
27642;SDS011;15053;48.618;10.024;2023-03-01T12:25:13;32.15;;;17.83;;
27642;SDS011;15053;48.618;10.024;2023-03-01T12:33:15;25.30;;;16.80;;
27642;SDS011;15053;48.618;10.024;2023-03-01T12:42:00;30.73;;;15.55;;
27642;SDS011;15053;48.618;10.024;2023-03-01T12:44:42;24.25;;;16.08;;
27642;SDS011;15053;48.618;10.024;2023-03-01T12:50:41;24.02;;;14.25;;
27642;SDS011;15053;48.618;10.024;2023-03-01T12:53:15;25.10;;;14.50;;
27642;SDS011;15053;48.618;10.024;2023-03-01T12:55:49;23.02;;;14.00;;
27642;SDS011;15053;48.618;10.024;2023-03-01T12:58:23;23.45;;;14.82;;
27642;SDS011;15053;48.618;10.024;2023-03-01T13:01:17;23.30;;;14.43;;
27642;SDS011;15053;48.618;10.024;2023-03-01T13:06:47;26.38;;;15.43;;
27642;SDS011;15053;48.618;10.024;2023-03-01T13:09:27;20.88;;;14.27;;
27642;SDS011;15053;48.618;10.024;2023-03-01T13:15:31;25.70;;;14.35;;
27642;SDS011;15053;48.618;10.024;2023-03-01T13:18:46;23.15;;;14.23;;
27642;SDS011;15053;48.618;10.024;2023-03-01T13:20:52;19.35;;;13.35;;
27642;SDS011;15053;48.618;10.024;2023-03-01T13:23:24;22.27;;;13.32;;
27642;SDS011;15053;48.618;10.024;2023-03-01T13:33:47;23.50;;;13.88;;
27642;SDS011;15053;48.618;10.024;2023-03-01T13:38:57;21.52;;;13.68;;
27642;SDS011;15053;48.618;10.024;2023-03-01T13:44:24;20.88;;;12.20;;
27642;SDS011;15053;48.618;10.024;2023-03-01T13:47:14;20.33;;;12.50;;
27642;SDS011;15053;48.618;10.024;2023-03-01T13:49:49;20.45;;;13.25;;
27642;SDS011;15053;48.618;10.024;2023-03-01T13:55:51;20.77;;;12.55;;
27642;SDS011;15053;48.618;10.024;2023-03-01T13:57:59;21.17;;;12.38;;
27642;SDS011;15053;48.618;10.024;2023-03-01T14:00:29;20.08;;;13.32;;
27642;SDS011;15053;48.618;10.024;2023-03-01T14:03:13;22.58;;;13.45;;
27642;SDS011;15053;48.618;10.024;2023-03-01T14:05:58;20.65;;;13.02;;
27642;SDS011;15053;48.618;10.024;2023-03-01T14:08:42;24.48;;;13.88;;
27642;SDS011;15053;48.618;10.024;2023-03-01T14:11:20;17.48;;;12.35;;
27642;SDS011;15053;48.618;10.024;2023-03-01T14:14:01;27.27;;;14.60;;
27642;SDS011;15053;48.618;10.024;2023-03-01T14:19:24;26.15;;;13.88;;
27642;SDS011;15053;48.618;10.024;2023-03-01T14:24:53;22.02;;;13.25;;
27642;SDS011;15053;48.618;10.024;2023-03-01T14:27:20;23.10;;;14.50;;
27642;SDS011;15053;48.618;10.024;2023-03-01T14:29:57;21.83;;;14.13;;
27642;SDS011;15053;48.618;10.024;2023-03-01T14:32:26;23.63;;;14.57;;
27642;SDS011;15053;48.618;10.024;2023-03-01T14:34:54;22.70;;;13.77;;
27642;SDS011;15053;48.618;10.024;2023-03-01T14:37:26;25.63;;;15.07;;
27642;SDS011;15053;48.618;10.024;2023-03-01T14:39:58;23.90;;;14.00;;
27642;SDS011;15053;48.618;10.024;2023-03-01T14:42:27;23.63;;;13.40;;
27642;SDS011;15053;48.618;10.024;2023-03-01T14:44:57;25.70;;;15.50;;
27642;SDS011;15053;48.618;10.024;2023-03-01T14:47:31;27.98;;;15.77;;
27642;SDS011;15053;48.618;10.024;2023-03-01T14:50:17;25.08;;;15.65;;
27642;SDS011;15053;48.618;10.024;2023-03-01T14:52:48;29.65;;;16.58;;
27642;SDS011;15053;48.618;10.024;2023-03-01T14:55:19;24.85;;;15.07;;
27642;SDS011;15053;48.618;10.024;2023-03-01T14:57:48;25.80;;;15.57;;
27642;SDS011;15053;48.618;10.024;2023-03-01T15:00:17;23.85;;;15.25;;
27642;SDS011;15053;48.618;10.024;2023-03-01T15:05:14;25.98;;;14.73;;
27642;SDS011;15053;48.618;10.024;2023-03-01T15:07:44;25.23;;;14.30;;
27642;SDS011;15053;48.618;10.024;2023-03-01T15:10:22;23.60;;;15.23;;
27642;SDS011;15053;48.618;10.024;2023-03-01T15:12:50;30.70;;;16.00;;
27642;SDS011;15053;48.618;10.024;2023-03-01T15:15:26;25.35;;;15.70;;
27642;SDS011;15053;48.618;10.024;2023-03-01T15:17:58;24.75;;;14.45;;
27642;SDS011;15053;48.618;10.024;2023-03-01T15:20:27;21.60;;;14.48;;
27642;SDS011;15053;48.618;10.024;2023-03-01T15:22:56;23.13;;;14.52;;
27642;SDS011;15053;48.618;10.024;2023-03-01T15:25:24;25.17;;;14.88;;
27642;SDS011;15053;48.618;10.024;2023-03-01T15:27:54;22.08;;;14.27;;
27642;SDS011;15053;48.618;10.024;2023-03-01T15:30:26;22.60;;;14.35;;
27642;SDS011;15053;48.618;10.024;2023-03-01T15:33:17;20.90;;;13.68;;
27642;SDS011;15053;48.618;10.024;2023-03-01T15:35:58;25.80;;;14.52;;
27642;SDS011;15053;48.618;10.024;2023-03-01T15:40:55;24.55;;;14.82;;
27642;SDS011;15053;48.618;10.024;2023-03-01T15:43:42;23.30;;;13.93;;
27642;SDS011;15053;48.618;10.024;2023-03-01T15:46:16;21.55;;;14.18;;
27642;SDS011;15053;48.618;10.024;2023-03-01T15:48:45;22.05;;;15.85;;
27642;SDS011;15053;48.618;10.024;2023-03-01T15:53:47;21.33;;;14.07;;
27642;SDS011;15053;48.618;10.024;2023-03-01T15:56:20;19.38;;;14.18;;
27642;SDS011;15053;48.618;10.024;2023-03-01T15:58:46;21.17;;;14.77;;
27642;SDS011;15053;48.618;10.024;2023-03-01T16:01:13;20.38;;;13.52;;
27642;SDS011;15053;48.618;10.024;2023-03-01T16:03:43;24.10;;;13.77;;
27642;SDS011;15053;48.618;10.024;2023-03-01T16:06:10;18.45;;;14.10;;
27642;SDS011;15053;48.618;10.024;2023-03-01T16:08:37;17.85;;;13.45;;
27642;SDS011;15053;48.618;10.024;2023-03-01T16:11:05;19.70;;;12.88;;
27642;SDS011;15053;48.618;10.024;2023-03-01T16:13:39;17.35;;;13.15;;